createdAt,value
2022-11-09T00:01:03.621Z,1.08
2022-11-09T00:03:30.902Z,0.80
2022-11-09T00:05:59.610Z,1.30
2022-11-09T00:08:27.651Z,0.93
2022-11-09T00:10:54.765Z,1.00
2022-11-09T00:13:22.462Z,0.60
2022-11-09T00:15:49.769Z,1.15
2022-11-09T00:18:16.732Z,0.43
2022-11-09T00:20:47.504Z,1.33
2022-11-09T00:23:18.596Z,0.90
2022-11-09T00:25:45.986Z,1.38
2022-11-09T00:28:13.448Z,1.02
2022-11-09T00:30:41.783Z,1.00
2022-11-09T00:33:08.878Z,1.10
2022-11-09T00:35:39.473Z,1.13
2022-11-09T00:38:06.537Z,1.23
2022-11-09T00:40:33.608Z,0.90
2022-11-09T00:43:00.538Z,0.88
2022-11-09T00:45:27.508Z,1.30
2022-11-09T00:47:54.588Z,1.40
2022-11-09T00:50:21.678Z,0.98
2022-11-09T00:52:48.649Z,1.17
2022-11-09T00:55:15.715Z,0.82
2022-11-09T00:57:42.949Z,0.80
2022-11-09T01:00:11.277Z,0.63
2022-11-09T01:02:38.302Z,1.00
2022-11-09T01:05:05.798Z,0.93
2022-11-09T01:07:32.735Z,0.98
2022-11-09T01:09:59.702Z,0.60
2022-11-09T01:12:26.662Z,1.30
2022-11-09T01:14:53.749Z,0.98
2022-11-09T01:17:21.211Z,1.13
2022-11-09T01:19:48.926Z,1.00
2022-11-09T01:22:17.502Z,1.13
2022-11-09T01:24:45.093Z,1.35
2022-11-09T01:27:12.120Z,0.95
2022-11-09T01:29:39.084Z,1.10
2022-11-09T01:32:06.044Z,0.90
2022-11-09T01:34:33.018Z,1.30
2022-11-09T01:36:59.988Z,0.35
2022-11-09T01:39:26.958Z,0.70
2022-11-09T01:41:53.872Z,1.05
2022-11-09T01:44:21.342Z,1.00
2022-11-09T01:47:07.130Z,1.13
2022-11-09T01:49:49.845Z,0.83
2022-11-09T01:52:29.786Z,0.90
2022-11-09T01:55:09.935Z,1.20
2022-11-09T01:57:50.097Z,0.95
2022-11-09T02:00:18.428Z,1.00
2022-11-09T02:03:01.343Z,0.60
2022-11-09T02:05:32.938Z,0.50
2022-11-09T02:08:01.983Z,0.70
2022-11-09T02:10:50.547Z,0.55
2022-11-09T02:13:20.171Z,0.40
2022-11-09T02:15:49.769Z,0.80
2022-11-09T02:18:18.007Z,0.70
2022-11-09T02:20:57.201Z,0.75
2022-11-09T02:23:26.479Z,0.80
2022-11-09T02:26:03.402Z,0.88
2022-11-09T02:28:32.216Z,0.93
2022-11-09T02:31:00.126Z,0.80
2022-11-09T02:33:27.187Z,0.90
2022-11-09T02:35:54.240Z,0.80
2022-11-09T02:38:21.163Z,0.80
2022-11-09T02:40:51.992Z,1.10
2022-11-09T02:43:19.788Z,1.15
2022-11-09T02:45:46.985Z,0.70
2022-11-09T02:48:14.041Z,0.93
2022-11-09T02:50:40.982Z,0.65
2022-11-09T02:53:08.010Z,0.60
2022-11-09T02:55:34.928Z,0.80
2022-11-09T02:58:01.951Z,1.00
2022-11-09T03:00:29.085Z,0.85
2022-11-09T03:02:56.273Z,0.70
2022-11-09T03:05:23.341Z,1.25
2022-11-09T03:07:50.358Z,0.17
2022-11-09T03:10:17.409Z,0.50
2022-11-09T03:12:44.415Z,1.02
2022-11-09T03:15:11.577Z,0.63
2022-11-09T03:17:38.589Z,0.70
2022-11-09T03:20:06.486Z,0.80
2022-11-09T03:22:33.512Z,0.40
2022-11-09T03:25:00.435Z,0.85
2022-11-09T03:27:27.383Z,1.05
2022-11-09T03:29:54.326Z,0.90
2022-11-09T03:32:21.320Z,0.70
2022-11-09T03:34:49.215Z,0.82
2022-11-09T03:37:16.340Z,0.52
2022-11-09T03:39:43.529Z,0.50
2022-11-09T03:42:10.475Z,0.70
2022-11-09T03:44:37.442Z,0.40
2022-11-09T03:47:04.415Z,1.02
2022-11-09T03:49:31.412Z,0.97
2022-11-09T03:51:58.377Z,0.77
2022-11-09T03:54:25.331Z,0.85
2022-11-09T03:56:52.305Z,0.73
2022-11-09T03:59:19.305Z,0.80
2022-11-09T04:01:46.478Z,1.00
2022-11-09T04:04:13.554Z,0.85
2022-11-09T04:06:40.539Z,0.52
2022-11-09T04:09:07.525Z,0.95
2022-11-09T04:11:34.452Z,1.25
2022-11-09T04:14:01.520Z,1.20
2022-11-09T04:16:28.498Z,1.05
2022-11-09T04:18:55.569Z,0.85
2022-11-09T04:21:24.056Z,0.98
2022-11-09T04:23:51.225Z,0.98
2022-11-09T04:26:18.204Z,0.77
2022-11-09T04:28:45.162Z,0.80
2022-11-09T04:31:12.237Z,1.13
2022-11-09T04:33:39.157Z,0.75
2022-11-09T04:36:06.663Z,1.17
2022-11-09T04:38:33.675Z,0.98
2022-11-09T04:41:03.147Z,0.70
2022-11-09T04:43:30.213Z,0.70
2022-11-09T04:46:03.886Z,0.80
2022-11-09T04:48:32.796Z,0.73
2022-11-09T04:51:04.375Z,0.80
2022-11-09T04:53:31.669Z,0.95
2022-11-09T04:55:58.959Z,0.82
2022-11-09T04:58:26.885Z,0.70
2022-11-09T05:00:55.525Z,0.50
2022-11-09T05:03:22.826Z,0.73
2022-11-09T05:05:51.029Z,1.03
2022-11-09T05:08:18.048Z,0.80
2022-11-09T05:10:45.056Z,0.77
2022-11-09T05:13:13.560Z,1.00
2022-11-09T05:15:41.370Z,0.98
2022-11-09T05:18:09.892Z,1.27
2022-11-09T05:20:37.209Z,0.63
2022-11-09T05:23:23.989Z,0.70
2022-11-09T05:25:51.141Z,0.68
2022-11-09T05:28:18.135Z,1.00
2022-11-09T05:30:45.124Z,1.08
2022-11-09T05:33:12.110Z,0.77
2022-11-09T05:35:39.149Z,0.52
2022-11-09T05:38:06.130Z,0.70
2022-11-09T05:40:34.059Z,1.05
2022-11-09T05:43:01.252Z,1.40
2022-11-09T05:45:42.141Z,1.02
2022-11-09T05:48:13.421Z,0.60
2022-11-09T05:50:43.939Z,0.60
2022-11-09T05:53:12.352Z,0.70
2022-11-09T05:55:40.047Z,1.10
2022-11-09T05:58:07.849Z,1.15
2022-11-09T06:00:35.344Z,0.98
2022-11-09T06:03:09.181Z,1.25
2022-11-09T06:05:38.749Z,1.00
2022-11-09T06:08:14.496Z,0.95
2022-11-09T06:10:42.873Z,0.77
2022-11-09T06:13:11.581Z,0.88
2022-11-09T06:15:38.586Z,1.02
2022-11-09T06:18:05.528Z,0.82
2022-11-09T06:20:33.419Z,1.10
2022-11-09T06:23:04.011Z,0.95
2022-11-09T06:25:33.229Z,1.00
2022-11-09T06:28:01.111Z,0.90
2022-11-09T06:30:28.253Z,0.50
2022-11-09T06:33:00.319Z,0.77
2022-11-09T06:35:27.756Z,1.35
2022-11-09T06:37:59.669Z,1.10
2022-11-09T06:40:27.413Z,0.70
2022-11-09T06:43:00.574Z,0.65
2022-11-09T06:45:29.573Z,1.15
2022-11-09T06:48:02.781Z,0.50
2022-11-09T06:50:32.637Z,0.40
2022-11-09T06:53:02.435Z,0.47
2022-11-09T06:55:31.500Z,0.50
2022-11-09T06:57:58.749Z,0.40
2022-11-09T07:00:27.849Z,0.38
2022-11-09T07:02:54.978Z,0.70
2022-11-09T07:05:22.106Z,0.43
2022-11-09T07:07:49.203Z,0.63
2022-11-09T07:10:16.975Z,0.70
2022-11-09T07:12:44.019Z,0.30
2022-11-09T07:15:12.337Z,0.40
2022-11-09T07:17:40.208Z,0.60
2022-11-09T07:20:11.489Z,0.22
2022-11-09T07:22:39.934Z,0.45
2022-11-09T07:25:09.423Z,0.60
2022-11-09T07:27:37.146Z,0.30
2022-11-09T07:30:05.030Z,0.20
2022-11-09T07:35:23.885Z,0.40
2022-11-09T07:37:50.842Z,0.20
2022-11-09T07:40:17.830Z,0.43
2022-11-09T07:42:44.831Z,0.47
2022-11-09T07:45:11.998Z,0.30
2022-11-09T07:47:38.990Z,0.40
2022-11-09T07:50:06.735Z,0.40
2022-11-09T07:52:33.692Z,0.50
2022-11-09T07:55:00.669Z,0.50
2022-11-09T07:57:27.624Z,0.38
2022-11-09T07:59:54.539Z,0.50
2022-11-09T08:02:21.536Z,0.40
2022-11-09T08:04:48.613Z,0.30
2022-11-09T08:07:15.574Z,0.50
2022-11-09T08:09:42.505Z,0.30
2022-11-09T08:12:09.521Z,0.38
2022-11-09T08:14:36.455Z,0.40
2022-11-09T08:17:03.406Z,0.57
2022-11-09T08:19:30.398Z,0.43
2022-11-09T08:21:57.925Z,0.43
2022-11-09T08:24:24.873Z,0.40
2022-11-09T08:26:51.837Z,0.38
2022-11-09T08:29:18.804Z,0.30
2022-11-09T08:31:45.742Z,0.40
2022-11-09T08:34:14.259Z,0.28
2022-11-09T08:36:41.326Z,0.40
2022-11-09T08:39:10.185Z,0.38
2022-11-09T08:41:37.689Z,0.20
2022-11-09T08:44:04.911Z,0.38
2022-11-09T08:46:32.662Z,0.30
2022-11-09T08:49:01.835Z,0.30
2022-11-09T08:51:28.768Z,0.70
2022-11-09T08:53:55.927Z,0.43
2022-11-09T08:56:22.955Z,0.30
2022-11-09T08:58:50.000Z,0.60
2022-11-09T09:01:21.594Z,0.30
2022-11-09T09:03:48.729Z,0.50
2022-11-09T09:06:15.765Z,0.35
2022-11-09T09:08:43.913Z,0.20
2022-11-09T09:11:10.872Z,0.30
2022-11-09T09:13:43.115Z,0.22
2022-11-09T09:16:15.781Z,0.45
2022-11-09T09:18:43.267Z,0.23
2022-11-09T09:21:11.588Z,0.30
2022-11-09T09:23:38.584Z,0.35
2022-11-09T09:26:06.022Z,0.32
2022-11-09T09:28:33.354Z,0.60
2022-11-09T09:31:01.878Z,0.55
2022-11-09T09:33:29.390Z,0.47
2022-11-09T09:35:58.143Z,0.45
2022-11-09T09:38:27.751Z,0.30
2022-11-09T09:41:00.028Z,0.30
2022-11-09T09:43:43.183Z,0.40
2022-11-09T09:46:36.375Z,0.40
2022-11-09T09:49:31.804Z,0.30
2022-11-09T09:52:10.929Z,0.40
2022-11-09T09:54:50.154Z,0.50
2022-11-09T09:57:22.812Z,0.30
2022-11-09T09:59:58.094Z,0.30
2022-11-09T10:02:35.992Z,0.47
2022-11-09T10:05:11.981Z,0.40
2022-11-09T10:08:14.256Z,0.30
2022-11-09T10:11:28.981Z,0.30
2022-11-09T10:14:30.022Z,0.40
2022-11-09T10:17:39.180Z,0.43
2022-11-09T10:20:18.486Z,0.20
2022-11-09T10:23:30.707Z,0.20
2022-11-09T10:26:27.065Z,0.20
2022-11-09T10:29:15.790Z,0.38
2022-11-09T10:31:46.574Z,0.47
2022-11-09T10:34:30.037Z,0.40
2022-11-09T10:37:21.042Z,0.50
2022-11-09T10:39:58.299Z,0.40
2022-11-09T10:42:25.294Z,0.20
2022-11-09T10:44:52.307Z,0.40
2022-11-09T10:47:19.965Z,0.60
2022-11-09T10:49:46.978Z,0.33
2022-11-09T10:52:44.146Z,0.50
2022-11-09T10:55:26.590Z,0.50
2022-11-09T10:58:23.960Z,0.30
2022-11-09T11:01:11.947Z,0.13
2022-11-09T11:03:40.311Z,0.20
2022-11-09T11:06:31.428Z,0.20
2022-11-09T11:08:58.439Z,0.20
2022-11-09T11:11:37.046Z,0.30
2022-11-09T11:14:28.322Z,0.43
2022-11-09T11:16:56.234Z,0.30
2022-11-09T11:19:41.679Z,0.35
2022-11-09T11:22:27.358Z,0.20
2022-11-09T11:25:11.536Z,0.30
2022-11-09T11:27:49.410Z,0.35
2022-11-09T11:30:22.971Z,0.40
2022-11-09T11:32:51.041Z,0.30
2022-11-09T11:35:45.497Z,0.35
2022-11-09T11:38:41.500Z,0.20
2022-11-09T11:41:50.175Z,0.33
2022-11-09T11:44:28.822Z,0.30
2022-11-09T11:47:20.687Z,0.30
2022-11-09T11:50:46.181Z,0.30
2022-11-09T11:54:04.632Z,0.40
2022-11-09T11:56:46.676Z,0.30
2022-11-09T11:59:54.046Z,0.20
2022-11-09T12:02:56.712Z,0.38
2022-11-09T12:06:00.323Z,0.47
2022-11-09T12:09:16.427Z,0.43
2022-11-09T12:12:03.639Z,0.30
2022-11-09T12:14:46.706Z,0.28
2022-11-09T12:17:38.099Z,0.30
2022-11-09T12:20:33.571Z,0.50
2022-11-09T12:23:12.181Z,0.30
2022-11-09T12:26:26.131Z,0.20
2022-11-09T12:29:19.551Z,0.32
2022-11-09T12:31:58.131Z,0.40
2022-11-09T12:34:57.740Z,0.30
2022-11-09T12:37:34.914Z,0.20
2022-11-09T12:40:25.048Z,0.47
2022-11-09T12:43:32.472Z,0.30
2022-11-09T12:46:01.793Z,0.40
2022-11-09T12:48:35.392Z,0.30
2022-11-09T12:51:05.468Z,0.22
2022-11-09T12:53:38.708Z,0.20
2022-11-09T12:56:34.667Z,0.15
2022-11-09T12:59:22.629Z,0.22
2022-11-09T13:01:59.323Z,0.40
2022-11-09T13:04:27.345Z,0.40
2022-11-09T13:07:18.031Z,0.20
2022-11-09T13:09:52.894Z,0.10
2022-11-09T13:12:40.179Z,0.50
2022-11-09T13:15:26.054Z,0.20
2022-11-09T13:18:18.071Z,0.17
2022-11-09T13:20:56.488Z,0.20
2022-11-09T13:23:47.557Z,0.15
2022-11-09T13:26:31.035Z,0.30
2022-11-09T13:29:41.080Z,0.28
2022-11-09T13:32:14.028Z,0.28
2022-11-09T13:35:04.396Z,0.40
2022-11-09T13:37:41.249Z,0.20
2022-11-09T13:40:31.804Z,0.40
2022-11-09T13:43:13.890Z,0.30
2022-11-09T13:45:47.595Z,0.40
2022-11-09T13:48:48.764Z,0.50
2022-11-09T13:51:19.236Z,0.30
2022-11-09T13:54:03.037Z,0.20
2022-11-09T13:56:41.176Z,0.20
2022-11-09T13:59:21.708Z,0.30
2022-11-09T14:01:54.029Z,0.20
2022-11-09T14:04:41.262Z,0.40
2022-11-09T14:07:29.346Z,0.20
2022-11-09T14:10:12.739Z,0.20
2022-11-09T14:13:33.855Z,0.20
2022-11-09T14:16:42.614Z,0.30
2022-11-09T14:19:39.257Z,0.30
2022-11-09T14:22:19.772Z,0.00
2022-11-09T14:24:47.233Z,0.30
2022-11-09T14:27:23.585Z,0.20
2022-11-09T14:29:56.099Z,0.20
2022-11-09T14:32:27.538Z,0.20
2022-11-09T14:35:32.864Z,0.30
2022-11-09T14:38:16.211Z,0.20
2022-11-09T14:40:48.970Z,0.40
2022-11-09T14:43:44.757Z,0.40
2022-11-09T14:46:22.566Z,0.32
2022-11-09T14:48:56.333Z,0.30
2022-11-09T14:51:32.559Z,0.20
2022-11-09T14:54:02.371Z,0.22
2022-11-09T14:56:30.658Z,0.40
2022-11-09T14:58:58.138Z,0.20
2022-11-09T15:01:28.313Z,0.35
2022-11-09T15:04:21.423Z,0.20
2022-11-09T15:06:57.470Z,0.20
2022-11-09T15:09:43.895Z,0.17
2022-11-09T15:12:20.835Z,0.55
2022-11-09T15:15:01.600Z,0.60
2022-11-09T15:17:32.352Z,0.50
2022-11-09T15:20:28.610Z,0.30
2022-11-09T15:23:21.120Z,0.30
2022-11-09T15:25:48.446Z,0.43
2022-11-09T15:28:25.384Z,0.20
2022-11-09T15:30:55.448Z,0.30
2022-11-09T15:33:27.721Z,0.20
2022-11-09T15:35:59.877Z,0.20
2022-11-09T15:38:39.545Z,0.20
2022-11-09T15:41:19.480Z,0.30
2022-11-09T15:43:46.826Z,0.32
2022-11-09T15:46:36.186Z,0.28
2022-11-09T15:49:34.365Z,0.20
2022-11-09T15:52:01.423Z,0.60
2022-11-09T15:54:28.469Z,0.25
2022-11-09T15:56:55.428Z,0.10
2022-11-09T15:59:26.923Z,0.30
2022-11-09T16:01:54.055Z,1.05
2022-11-09T16:04:20.971Z,1.10
2022-11-09T16:06:48.141Z,1.00
2022-11-09T16:09:15.970Z,1.25
2022-11-09T16:11:42.942Z,1.20
2022-11-09T16:14:09.924Z,1.23
2022-11-09T16:16:36.987Z,0.60
2022-11-09T16:19:04.007Z,0.90
2022-11-09T16:21:30.953Z,0.60
2022-11-09T16:23:58.772Z,0.90
2022-11-09T16:26:26.314Z,1.10
2022-11-09T16:28:55.090Z,1.00
2022-11-09T16:31:41.065Z,1.27
2022-11-09T16:34:08.994Z,0.88
2022-11-09T16:36:38.877Z,1.00
2022-11-09T16:39:12.738Z,1.10
2022-11-09T16:41:42.024Z,1.17
2022-11-09T16:44:09.126Z,0.98
2022-11-09T16:46:36.093Z,1.07
2022-11-09T16:49:03.554Z,6.85
2022-11-09T16:51:31.146Z,8.20
2022-11-09T16:53:58.524Z,3.83
2022-11-09T16:56:26.253Z,2.70
2022-11-09T16:58:53.234Z,1.85
2022-11-09T17:01:23.777Z,1.17
2022-11-09T17:03:51.266Z,2.00
2022-11-09T17:06:21.382Z,1.67
2022-11-09T17:08:48.398Z,1.95
2022-11-09T17:11:17.781Z,1.08
2022-11-09T17:13:47.446Z,1.52
2022-11-09T17:16:16.853Z,1.35
2022-11-09T17:18:43.971Z,1.17
2022-11-09T17:21:14.313Z,1.17
2022-11-09T17:23:43.005Z,1.33
2022-11-09T17:26:11.295Z,1.55
2022-11-09T17:28:42.974Z,0.87
2022-11-09T17:31:17.986Z,0.98
2022-11-09T17:33:46.145Z,1.25
2022-11-09T17:36:16.146Z,1.27
2022-11-09T17:38:43.315Z,1.92
2022-11-09T17:41:18.522Z,4.00
2022-11-09T17:43:46.196Z,2.37
2022-11-09T17:46:18.007Z,2.10
2022-11-09T17:48:47.512Z,1.38
2022-11-09T17:51:18.014Z,1.92
2022-11-09T17:53:45.483Z,1.10
2022-11-09T17:56:14.395Z,1.38
2022-11-09T17:58:44.784Z,1.23
2022-11-09T18:01:15.966Z,1.40
2022-11-09T18:03:43.201Z,1.48
2022-11-09T18:06:17.040Z,1.08
2022-11-09T18:08:45.489Z,1.17
2022-11-09T18:11:14.484Z,1.40
2022-11-09T18:13:42.924Z,1.45
2022-11-09T18:16:17.895Z,1.27
2022-11-09T18:18:45.867Z,2.03
2022-11-09T18:21:16.774Z,3.50
2022-11-09T18:23:45.555Z,2.78
2022-11-09T18:26:13.750Z,3.97
2022-11-09T18:28:40.857Z,5.07
2022-11-09T18:31:11.468Z,3.47
2022-11-09T18:33:40.298Z,2.40
2022-11-09T18:36:15.447Z,3.00
2022-11-09T18:38:44.226Z,3.15
2022-11-09T18:41:20.637Z,2.42
2022-11-09T18:43:49.049Z,2.33
2022-11-09T18:46:18.872Z,2.20
2022-11-09T18:48:49.648Z,2.17
2022-11-09T18:51:16.748Z,2.13
2022-11-09T18:53:46.717Z,1.38
2022-11-09T18:56:25.040Z,1.88
2022-11-09T18:58:56.588Z,2.05
2022-11-09T19:01:26.977Z,1.85
2022-11-09T19:03:59.051Z,1.60
2022-11-09T19:06:27.746Z,1.80
2022-11-09T19:09:13.611Z,1.55
2022-11-09T19:11:41.211Z,1.35
2022-11-09T19:14:10.728Z,1.70
2022-11-09T19:16:38.217Z,1.92
2022-11-09T19:19:05.644Z,1.80
2022-11-09T19:21:56.933Z,2.33
2022-11-09T19:24:28.625Z,1.30
2022-11-09T19:26:56.910Z,1.45
2022-11-09T19:29:24.299Z,1.50
2022-11-09T19:31:51.748Z,1.90
2022-11-09T19:34:21.776Z,1.40
2022-11-09T19:36:50.594Z,1.67
2022-11-09T19:39:18.269Z,1.42
2022-11-09T19:41:45.661Z,1.42
2022-11-09T19:44:14.573Z,1.38
2022-11-09T19:46:42.640Z,1.50
2022-11-09T19:49:10.289Z,1.50
2022-11-09T19:51:39.057Z,2.85
2022-11-09T19:54:08.271Z,2.35
2022-11-09T19:56:37.321Z,1.77
2022-11-09T19:59:05.636Z,2.00
2022-11-09T20:01:33.403Z,2.28
2022-11-09T20:04:05.167Z,2.10
2022-11-09T20:06:40.169Z,1.60
2022-11-09T20:09:07.689Z,2.45
2022-11-09T20:12:15.003Z,2.20
2022-11-09T20:14:42.721Z,2.05
2022-11-09T20:17:10.054Z,2.75
2022-11-09T20:19:37.351Z,2.78
2022-11-09T20:22:04.631Z,3.30
2022-11-09T20:24:32.067Z,3.00
2022-11-09T20:26:59.369Z,3.30
2022-11-09T20:29:28.250Z,3.00
2022-11-09T20:31:55.715Z,2.05
2022-11-09T20:34:23.346Z,2.65
2022-11-09T20:36:50.608Z,2.15
2022-11-09T20:39:18.284Z,2.25
2022-11-09T20:41:45.604Z,2.10
2022-11-09T20:44:13.477Z,2.08
2022-11-09T20:46:40.728Z,2.50
2022-11-09T20:49:09.257Z,2.20
2022-11-09T20:51:36.550Z,2.28
2022-11-09T20:54:07.567Z,2.20
2022-11-09T20:56:36.831Z,2.40
2022-11-09T20:59:04.392Z,2.35
2022-11-09T21:01:31.817Z,2.15
2022-11-09T21:03:59.149Z,2.65
2022-11-09T21:06:26.314Z,3.23
2022-11-09T21:08:56.321Z,2.75
2022-11-09T21:11:28.536Z,3.45
2022-11-09T21:13:56.335Z,3.53
2022-11-09T21:16:24.126Z,2.90
2022-11-09T21:18:51.246Z,2.30
2022-11-09T21:21:23.995Z,3.13
2022-11-09T21:24:09.780Z,2.30
2022-11-09T21:26:55.724Z,2.25
2022-11-09T21:29:43.664Z,1.45
2022-11-09T21:32:12.200Z,2.45
2022-11-09T21:34:39.380Z,1.88
2022-11-09T21:37:06.952Z,2.50
2022-11-09T21:39:34.564Z,1.98
2022-11-09T21:42:03.041Z,2.93
2022-11-09T21:44:32.447Z,2.20
2022-11-09T21:47:00.432Z,2.33
2022-11-09T21:49:28.040Z,1.73
2022-11-09T21:51:55.487Z,2.20
2022-11-09T21:54:23.689Z,2.05
2022-11-09T21:56:51.912Z,1.83
2022-11-09T21:59:19.016Z,1.80
2022-11-09T22:01:46.528Z,2.00
2022-11-09T22:04:13.937Z,2.17
2022-11-09T22:06:43.328Z,2.27
2022-11-09T22:09:17.045Z,1.80
2022-11-09T22:12:02.425Z,2.73
2022-11-09T22:14:47.837Z,2.97
2022-11-09T22:17:15.001Z,2.47
2022-11-09T22:20:00.870Z,2.40
2022-11-09T22:22:30.158Z,2.90
2022-11-09T22:24:57.872Z,3.50
2022-11-09T22:27:25.009Z,2.65
2022-11-09T22:29:52.118Z,3.80
2022-11-09T22:32:19.333Z,4.15
2022-11-09T22:34:46.415Z,5.32
2022-11-09T22:37:13.390Z,5.00
2022-11-09T22:39:45.864Z,3.53
2022-11-09T22:42:14.369Z,3.40
2022-11-09T22:44:44.443Z,4.53
2022-11-09T22:47:11.506Z,7.13
2022-11-09T22:49:41.246Z,3.63
2022-11-09T22:52:08.218Z,3.05
2022-11-09T22:54:35.193Z,1.88
2022-11-09T22:57:02.309Z,1.98
2022-11-09T22:59:29.278Z,2.05
2022-11-09T23:01:56.364Z,1.88
2022-11-09T23:04:23.368Z,1.92
2022-11-09T23:06:50.506Z,2.20
2022-11-09T23:09:17.580Z,2.40
2022-11-09T23:11:44.731Z,1.83
2022-11-09T23:14:14.538Z,1.98
2022-11-09T23:16:41.561Z,1.97
2022-11-09T23:19:08.539Z,1.90
2022-11-09T23:21:37.405Z,1.57
2022-11-09T23:24:07.255Z,2.03
2022-11-09T23:26:34.896Z,1.77
2022-11-09T23:29:06.620Z,2.08
2022-11-09T23:31:33.566Z,1.52
2022-11-09T23:34:00.527Z,2.00
2022-11-09T23:36:27.470Z,1.42
2022-11-09T23:38:54.613Z,1.80
2022-11-09T23:41:22.072Z,1.90
2022-11-09T23:43:50.112Z,1.98
2022-11-09T23:46:18.122Z,1.50
2022-11-09T23:48:45.473Z,1.77
2022-11-09T23:51:12.793Z,1.73
2022-11-09T23:53:40.096Z,1.45
2022-11-09T23:56:10.934Z,1.60
2022-11-09T23:58:38.780Z,1.83
